createdAt,value
2022-10-31T00:02:15.072Z,43.08
2022-10-31T00:04:42.977Z,43.78
2022-10-31T00:07:38.548Z,46.50
2022-10-31T00:10:08.641Z,49.80
2022-10-31T00:12:36.446Z,51.50
2022-10-31T00:15:04.667Z,52.95
2022-10-31T00:17:32.437Z,46.92
2022-10-31T00:20:03.296Z,48.63
2022-10-31T00:22:31.702Z,48.95
2022-10-31T00:25:25.787Z,49.25
2022-10-31T00:31:13.993Z,51.03
2022-10-31T00:33:42.752Z,48.20
2022-10-31T00:36:19.072Z,48.88
2022-10-31T00:38:48.365Z,49.83
2022-10-31T00:41:19.910Z,49.92
2022-10-31T00:43:47.822Z,52.20
2022-10-31T00:46:15.741Z,51.05
2022-10-31T00:48:43.798Z,51.67
2022-10-31T00:51:12.725Z,54.47
2022-10-31T00:53:42.778Z,54.25
2022-10-31T00:56:10.577Z,57.97
2022-10-31T00:59:03.584Z,59.20
2022-10-31T01:01:34.853Z,55.78
2022-10-31T01:04:02.898Z,65.55
2022-10-31T01:06:33.718Z,71.78
2022-10-31T01:09:01.466Z,65.95
2022-10-31T01:11:29.434Z,64.07
2022-10-31T01:13:58.802Z,62.42
2022-10-31T01:16:28.226Z,63.28
2022-10-31T01:18:59.097Z,67.18
2022-10-31T01:21:30.388Z,69.30
2022-10-31T01:24:03.227Z,69.68
2022-10-31T01:26:33.938Z,68.00
2022-10-31T01:29:07.530Z,72.85
2022-10-31T01:31:39.487Z,69.57
2022-10-31T01:34:07.897Z,71.57
2022-10-31T01:36:39.099Z,72.07
2022-10-31T01:39:13.485Z,73.05
2022-10-31T01:42:06.411Z,68.47
2022-10-31T01:44:34.206Z,74.18
2022-10-31T01:47:21.223Z,73.82
2022-10-31T01:49:59.246Z,76.90
2022-10-31T01:52:46.584Z,75.13
2022-10-31T01:55:26.453Z,75.97
2022-10-31T01:58:01.005Z,76.22
2022-10-31T02:00:29.391Z,78.55
2022-10-31T02:02:58.051Z,76.93
2022-10-31T02:05:29.882Z,77.40
2022-10-31T02:08:13.794Z,80.30
2022-10-31T02:10:43.945Z,76.88
2022-10-31T02:13:14.150Z,80.85
2022-10-31T02:15:50.671Z,77.38
2022-10-31T02:18:21.015Z,77.63
2022-10-31T02:20:53.251Z,72.15
2022-10-31T02:23:30.955Z,77.43
2022-10-31T02:26:07.319Z,78.28
2022-10-31T02:29:13.202Z,79.40
2022-10-31T02:32:01.893Z,76.20
2022-10-31T02:34:57.546Z,77.70
2022-10-31T02:37:43.707Z,79.65
2022-10-31T02:40:28.179Z,79.88
2022-10-31T02:43:36.023Z,79.45
2022-10-31T02:46:23.373Z,82.03
2022-10-31T02:48:57.025Z,80.68
2022-10-31T02:51:26.429Z,77.82
2022-10-31T02:53:56.962Z,83.00
2022-10-31T02:56:24.833Z,81.82
2022-10-31T02:59:01.836Z,80.20
2022-10-31T03:01:49.992Z,80.05
2022-10-31T03:04:32.118Z,81.38
2022-10-31T03:07:39.689Z,83.00
2022-10-31T03:10:27.002Z,84.10
2022-10-31T03:13:01.716Z,75.82
2022-10-31T03:15:44.221Z,88.07
2022-10-31T03:18:40.903Z,86.18
2022-10-31T03:21:15.895Z,83.53
2022-10-31T03:23:46.808Z,90.75
2022-10-31T03:26:23.184Z,102.05
2022-10-31T03:29:00.555Z,101.28
2022-10-31T03:31:34.945Z,101.47
2022-10-31T03:34:06.820Z,97.68
2022-10-31T03:36:42.458Z,90.70
2022-10-31T03:39:14.449Z,100.82
2022-10-31T03:41:45.441Z,97.47
2022-10-31T03:44:22.240Z,95.20
2022-10-31T03:47:25.743Z,84.68
2022-10-31T03:49:54.841Z,96.78
2022-10-31T03:53:15.308Z,93.88
2022-10-31T03:55:53.547Z,97.03
2022-10-31T03:58:28.924Z,94.70
2022-10-31T04:01:00.704Z,91.22
2022-10-31T04:03:33.910Z,90.45
2022-10-31T04:06:08.189Z,89.68
2022-10-31T04:08:46.934Z,79.78
2022-10-31T04:11:23.139Z,89.65
2022-10-31T04:14:38.197Z,92.53
2022-10-31T04:17:12.003Z,88.20
2022-10-31T04:20:07.501Z,85.00
2022-10-31T04:22:35.685Z,88.55
2022-10-31T04:25:03.645Z,90.53
2022-10-31T04:27:31.439Z,77.97
2022-10-31T04:30:24.138Z,84.95
2022-10-31T04:32:51.862Z,78.97
2022-10-31T04:35:19.626Z,84.25
2022-10-31T04:37:48.041Z,86.65
2022-10-31T04:40:16.199Z,73.03
2022-10-31T04:42:46.745Z,84.85
2022-10-31T04:45:40.524Z,85.65
2022-10-31T04:48:09.863Z,77.68
2022-10-31T04:50:43.809Z,78.40
2022-10-31T04:53:11.626Z,83.55
2022-10-31T04:56:02.230Z,83.78
2022-10-31T04:58:38.850Z,84.95
2022-10-31T05:01:09.991Z,70.82
2022-10-31T05:03:40.635Z,71.20
2022-10-31T05:06:09.009Z,83.65
2022-10-31T05:08:39.259Z,74.85
2022-10-31T05:11:09.712Z,84.88
2022-10-31T05:13:38.474Z,88.80
2022-10-31T05:16:06.564Z,81.00
2022-10-31T05:19:06.505Z,81.18
2022-10-31T05:22:00.866Z,93.32
2022-10-31T05:24:30.483Z,80.43
2022-10-31T05:26:58.579Z,89.97
2022-10-31T05:29:29.854Z,81.47
2022-10-31T05:34:46.693Z,68.80
2022-10-31T05:37:36.779Z,74.17
2022-10-31T05:40:08.295Z,82.22
2022-10-31T05:42:37.195Z,81.57
2022-10-31T05:45:05.630Z,79.25
2022-10-31T05:47:54.628Z,80.28
2022-10-31T05:50:41.174Z,79.95
2022-10-31T05:55:44.157Z,63.65
2022-10-31T05:58:19.429Z,68.80
2022-10-31T06:01:06.957Z,81.60
2022-10-31T06:03:35.097Z,71.38
2022-10-31T06:06:05.049Z,62.25
2022-10-31T06:08:42.102Z,66.28
2022-10-31T06:11:20.746Z,76.47
2022-10-31T06:14:04.249Z,69.28
2022-10-31T06:16:58.636Z,72.03
2022-10-31T06:20:20.704Z,71.40
2022-10-31T06:22:57.672Z,72.63
2022-10-31T06:25:26.256Z,65.43
2022-10-31T06:27:55.463Z,67.22
2022-10-31T06:30:26.651Z,67.88
2022-10-31T06:32:54.461Z,68.68
2022-10-31T06:35:22.468Z,58.38
2022-10-31T06:37:58.434Z,54.88
2022-10-31T06:40:49.824Z,58.58
2022-10-31T06:43:28.282Z,61.80
2022-10-31T06:46:28.939Z,67.20
2022-10-31T06:49:16.610Z,54.53
2022-10-31T06:52:11.699Z,56.25
2022-10-31T06:54:39.436Z,60.42
2022-10-31T06:57:07.169Z,50.38
2022-10-31T06:59:35.172Z,47.38
2022-10-31T07:02:27.092Z,43.63
2022-10-31T07:04:55.124Z,51.60
2022-10-31T07:07:52.767Z,49.65
2022-10-31T07:10:27.535Z,52.45
2022-10-31T07:13:03.409Z,49.97
2022-10-31T07:15:37.499Z,47.90
2022-10-31T07:18:07.367Z,44.97
2022-10-31T07:20:36.359Z,41.28
2022-10-31T07:23:06.352Z,49.95
2022-10-31T07:25:35.019Z,47.47
2022-10-31T07:28:18.202Z,48.95
2022-10-31T07:30:59.238Z,52.30
2022-10-31T07:33:30.482Z,51.53
2022-10-31T07:39:11.700Z,50.75
2022-10-31T07:41:39.575Z,48.03
2022-10-31T07:44:07.785Z,51.97
2022-10-31T07:46:55.670Z,49.90
2022-10-31T07:49:41.910Z,52.25
2022-10-31T07:52:28.153Z,52.20
2022-10-31T07:55:29.295Z,52.55
2022-10-31T07:58:02.343Z,49.47
2022-10-31T08:00:31.800Z,49.00
2022-10-31T08:03:09.098Z,48.10
2022-10-31T08:05:51.785Z,45.70
2022-10-31T08:08:38.647Z,43.17
2022-10-31T08:11:08.680Z,43.50
2022-10-31T08:13:39.581Z,46.80
2022-10-31T08:16:08.750Z,43.60
2022-10-31T08:18:43.715Z,44.88
2022-10-31T08:21:15.685Z,44.72
2022-10-31T08:23:45.913Z,45.53
2022-10-31T08:26:14.125Z,44.63
2022-10-31T08:28:42.727Z,42.03
2022-10-31T08:31:11.358Z,42.00
2022-10-31T08:34:01.823Z,43.17
2022-10-31T08:36:59.655Z,43.63
2022-10-31T08:39:35.625Z,42.67
2022-10-31T08:42:03.436Z,45.15
2022-10-31T08:44:31.278Z,42.03
2022-10-31T08:46:59.173Z,41.83
2022-10-31T08:49:26.967Z,41.88
2022-10-31T08:51:54.834Z,41.97
2022-10-31T08:54:23.910Z,43.17
2022-10-31T08:56:57.448Z,44.45
2022-10-31T08:59:40.588Z,46.28
2022-10-31T09:02:29.663Z,44.42
2022-10-31T09:05:00.845Z,44.38
2022-10-31T09:07:29.940Z,44.67
2022-10-31T09:09:57.997Z,46.00
2022-10-31T09:12:25.859Z,48.60
2022-10-31T09:15:12.417Z,48.30
2022-10-31T09:17:49.294Z,48.50
2022-10-31T09:20:37.685Z,47.78
2022-10-31T09:23:07.308Z,48.30
2022-10-31T09:25:38.002Z,51.22
2022-10-31T09:28:46.318Z,51.20
2022-10-31T09:31:16.392Z,48.38
2022-10-31T09:33:55.642Z,48.22
2022-10-31T09:36:40.000Z,47.88
2022-10-31T09:39:21.996Z,48.88
2022-10-31T09:42:25.943Z,48.65
2022-10-31T09:45:11.470Z,46.08
2022-10-31T09:48:17.112Z,47.00
2022-10-31T09:51:10.382Z,46.55
2022-10-31T09:54:17.168Z,46.10
2022-10-31T09:57:14.900Z,48.10
2022-10-31T09:59:49.278Z,49.40
2022-10-31T10:02:57.552Z,50.35
2022-10-31T10:05:40.995Z,55.53
2022-10-31T10:08:22.552Z,55.92
2022-10-31T10:11:31.008Z,55.85
2022-10-31T10:14:23.347Z,53.13
2022-10-31T10:17:00.091Z,53.08
2022-10-31T10:19:47.249Z,51.75
2022-10-31T10:22:40.167Z,52.45
2022-10-31T10:25:34.147Z,54.90
2022-10-31T10:28:11.519Z,53.47
2022-10-31T10:31:11.579Z,54.08
2022-10-31T10:34:06.168Z,53.13
2022-10-31T10:36:44.865Z,52.60
2022-10-31T10:39:38.468Z,48.65
2022-10-31T10:49:01.812Z,46.70
2022-10-31T10:55:04.313Z,41.70
2022-10-31T10:57:39.153Z,40.30
2022-10-31T11:00:21.625Z,42.38
2022-10-31T11:02:51.701Z,42.30
2022-10-31T11:05:24.631Z,42.17
2022-10-31T11:10:46.738Z,42.92
2022-10-31T11:13:29.836Z,41.47
2022-10-31T11:22:19.544Z,50.53
2022-10-31T11:24:51.263Z,38.78
2022-10-31T11:27:25.173Z,41.13
2022-10-31T11:30:00.507Z,46.55
2022-10-31T11:32:30.976Z,40.92
2022-10-31T11:35:15.253Z,42.08
2022-10-31T11:37:52.353Z,37.88
2022-10-31T11:40:26.278Z,44.40
2022-10-31T11:42:59.968Z,34.35
2022-10-31T11:45:34.847Z,33.13
2022-10-31T11:48:04.557Z,32.05
2022-10-31T11:50:40.563Z,34.35
2022-10-31T11:53:22.490Z,31.60
2022-10-31T11:56:04.678Z,30.23
2022-10-31T11:58:32.775Z,30.80
2022-10-31T12:01:00.985Z,30.02
2022-10-31T12:03:52.027Z,31.27
2022-10-31T12:06:34.851Z,30.40
2022-10-31T12:09:25.448Z,30.40
2022-10-31T12:15:30.952Z,28.60
2022-10-31T12:18:13.009Z,33.33
2022-10-31T12:20:53.289Z,28.30
2022-10-31T12:24:07.683Z,28.92
2022-10-31T12:27:11.299Z,30.80
2022-10-31T12:29:52.611Z,31.23
2022-10-31T12:32:38.838Z,27.45
2022-10-31T12:35:37.414Z,27.10
2022-10-31T12:38:43.899Z,26.98
2022-10-31T12:41:36.307Z,25.17
2022-10-31T12:44:14.064Z,23.33
2022-10-31T12:47:00.098Z,23.92
2022-10-31T12:50:04.797Z,23.17
2022-10-31T12:53:03.529Z,21.67
2022-10-31T12:55:52.769Z,18.65
2022-10-31T12:58:28.494Z,16.02
2022-10-31T13:01:08.764Z,16.90
2022-10-31T13:06:20.339Z,19.70
2022-10-31T13:08:57.251Z,22.13
2022-10-31T13:11:36.866Z,20.63
2022-10-31T13:14:17.463Z,20.50
2022-10-31T13:16:48.767Z,20.27
2022-10-31T13:19:35.651Z,21.55
2022-10-31T13:22:31.242Z,20.73
2022-10-31T13:25:12.759Z,23.85
2022-10-31T13:27:54.349Z,22.38
2022-10-31T13:30:25.475Z,23.45
2022-10-31T13:33:03.164Z,24.98
2022-10-31T13:35:41.901Z,24.45
2022-10-31T13:38:32.055Z,25.67
2022-10-31T13:41:06.296Z,28.40
2022-10-31T13:44:04.293Z,23.73
2022-10-31T13:46:34.516Z,24.25
2022-10-31T13:49:24.359Z,23.50
2022-10-31T13:51:55.597Z,21.92
2022-10-31T13:57:08.192Z,23.98
2022-10-31T13:59:39.037Z,24.67
2022-10-31T14:02:19.197Z,29.15
2022-10-31T14:04:58.605Z,35.25
2022-10-31T14:07:28.908Z,43.97
2022-10-31T14:10:30.919Z,50.38
2022-10-31T14:13:45.855Z,53.17
2022-10-31T14:16:39.347Z,55.33
2022-10-31T14:19:35.478Z,47.85
2022-10-31T14:22:03.696Z,44.28
2022-10-31T14:24:34.891Z,46.15
2022-10-31T14:27:26.478Z,45.38
2022-10-31T14:29:54.399Z,46.78
2022-10-31T14:32:27.348Z,46.28
2022-10-31T14:35:00.005Z,44.65
2022-10-31T14:38:16.549Z,48.85
2022-10-31T14:41:05.438Z,48.30
2022-10-31T14:43:45.709Z,48.70
2022-10-31T14:46:42.575Z,49.45
2022-10-31T14:49:32.287Z,51.40
2022-10-31T14:52:24.998Z,52.30
2022-10-31T14:54:56.393Z,50.40
2022-10-31T14:58:07.305Z,51.80
2022-10-31T15:00:37.491Z,50.47
2022-10-31T15:03:33.002Z,50.23
2022-10-31T15:06:12.147Z,52.92
2022-10-31T15:08:52.216Z,51.13
2022-10-31T15:11:28.781Z,54.47
2022-10-31T15:13:59.484Z,53.15
2022-10-31T15:16:44.430Z,51.72
2022-10-31T15:19:21.486Z,49.10
2022-10-31T15:21:52.757Z,46.50
2022-10-31T15:24:22.571Z,45.40
2022-10-31T15:26:57.695Z,46.05
2022-10-31T15:29:29.136Z,46.58
2022-10-31T15:32:00.067Z,48.15
2022-10-31T15:34:40.747Z,47.60
2022-10-31T15:37:33.769Z,50.45
2022-10-31T15:40:27.383Z,49.10
2022-10-31T15:42:58.855Z,51.30
2022-10-31T15:45:28.692Z,52.17
2022-10-31T15:47:59.493Z,52.20
2022-10-31T15:50:36.890Z,52.60
2022-10-31T15:53:07.870Z,49.28
2022-10-31T15:55:57.516Z,54.28
2022-10-31T15:58:26.576Z,53.13
2022-10-31T16:01:20.671Z,52.53
2022-10-31T16:04:09.109Z,53.33
2022-10-31T16:06:38.892Z,53.58
2022-10-31T16:09:24.100Z,53.42
2022-10-31T16:11:52.645Z,56.35
2022-10-31T16:14:38.805Z,57.03
2022-10-31T16:17:43.349Z,52.88
2022-10-31T16:20:44.162Z,55.25
2022-10-31T16:23:18.806Z,57.10
2022-10-31T16:25:48.396Z,57.88
2022-10-31T16:28:28.353Z,59.92
2022-10-31T16:30:59.687Z,60.13
2022-10-31T16:36:35.869Z,60.05
2022-10-31T16:39:04.682Z,58.65
2022-10-31T17:09:00.474Z,64.50
2022-10-31T17:11:35.477Z,62.85
2022-10-31T17:14:05.397Z,62.50
2022-10-31T17:22:53.836Z,61.78
2022-10-31T17:25:29.830Z,66.47
2022-10-31T17:27:59.204Z,64.53
2022-10-31T17:30:33.460Z,62.58
2022-10-31T17:33:11.127Z,62.92
2022-10-31T17:35:42.613Z,63.40
2022-10-31T17:38:16.899Z,64.53
2022-10-31T17:44:02.933Z,67.22
2022-10-31T17:46:32.388Z,66.90
2022-10-31T17:49:12.488Z,67.22
2022-10-31T17:51:43.443Z,67.90
2022-10-31T17:54:26.549Z,70.88
2022-10-31T17:57:26.173Z,65.78
2022-10-31T17:59:58.926Z,69.20
2022-10-31T18:02:34.870Z,69.03
2022-10-31T18:05:06.785Z,71.53
2022-10-31T18:07:35.076Z,68.60
2022-10-31T18:10:06.148Z,63.78
2022-10-31T18:15:07.856Z,65.35
2022-10-31T18:17:40.987Z,65.47
2022-10-31T18:20:11.484Z,63.83
2022-10-31T18:22:45.613Z,63.83
2022-10-31T18:25:21.488Z,64.15
2022-10-31T18:27:53.402Z,63.22
2022-10-31T18:30:21.705Z,64.60
2022-10-31T18:35:54.481Z,65.63
2022-10-31T18:38:23.503Z,64.82
2022-10-31T18:40:51.939Z,67.13
2022-10-31T18:43:19.966Z,65.72
2022-10-31T18:45:50.256Z,65.13
2022-10-31T18:48:20.499Z,64.75
2022-10-31T18:51:10.301Z,62.08
2022-10-31T18:53:45.196Z,65.57
2022-10-31T19:09:41.355Z,65.03
2022-10-31T19:12:09.579Z,67.25
2022-10-31T19:14:41.138Z,68.13
2022-10-31T19:17:12.271Z,66.03
2022-10-31T19:22:50.802Z,67.90
2022-10-31T19:25:18.792Z,68.75
2022-10-31T19:27:50.909Z,68.00
2022-10-31T19:30:19.130Z,66.40
2022-10-31T19:32:47.134Z,68.47
2022-10-31T19:35:14.839Z,66.63
2022-10-31T19:37:43.032Z,67.35
2022-10-31T19:42:42.334Z,69.32
2022-10-31T19:45:11.740Z,67.93
2022-10-31T19:47:39.439Z,69.93
2022-10-31T19:50:10.147Z,67.28
2022-10-31T19:52:38.120Z,70.28
2022-10-31T19:55:05.824Z,71.53
2022-10-31T19:58:01.296Z,72.30
2022-10-31T20:00:34.380Z,70.53
2022-10-31T20:05:52.653Z,73.20
2022-10-31T20:08:25.484Z,69.13
2022-10-31T20:10:54.823Z,70.28
2022-10-31T20:13:22.500Z,68.78
2022-10-31T20:15:53.712Z,70.88
2022-10-31T20:21:22.515Z,76.38
2022-10-31T20:23:54.718Z,75.95
2022-10-31T20:26:22.245Z,79.95
2022-10-31T20:28:50.012Z,81.38
2022-10-31T20:31:23.222Z,83.75
2022-10-31T20:33:53.879Z,81.15
2022-10-31T20:36:23.189Z,80.88
2022-10-31T20:38:56.108Z,85.07
2022-10-31T20:41:27.301Z,77.15
2022-10-31T20:44:01.820Z,78.57
2022-10-31T20:46:30.822Z,76.40
2022-10-31T20:48:58.730Z,76.35
2022-10-31T20:51:28.414Z,73.72
2022-10-31T20:53:56.843Z,69.53
2022-10-31T20:56:27.331Z,72.45
2022-10-31T20:58:55.841Z,69.50
2022-10-31T21:01:28.831Z,68.55
2022-10-31T21:03:58.502Z,67.15
2022-10-31T21:06:31.796Z,67.97
2022-10-31T21:09:00.694Z,67.75
2022-10-31T21:11:31.885Z,63.30
2022-10-31T21:13:59.958Z,62.83
2022-10-31T21:16:28.721Z,63.67
2022-10-31T21:18:56.963Z,61.60
2022-10-31T21:21:29.041Z,65.32
2022-10-31T21:24:09.737Z,70.30
2022-10-31T21:26:51.529Z,70.32
2022-10-31T21:29:35.302Z,66.20
2022-10-31T21:32:02.935Z,88.35
2022-10-31T21:34:31.305Z,75.22
2022-10-31T21:37:00.926Z,66.37
2022-10-31T21:39:28.889Z,68.80
2022-10-31T21:41:56.563Z,69.03
2022-10-31T21:44:24.925Z,68.60
2022-10-31T21:46:57.991Z,68.50
2022-10-31T21:49:27.105Z,67.82
2022-10-31T21:51:59.755Z,73.47
2022-10-31T22:00:19.914Z,68.32
2022-10-31T22:02:58.504Z,67.05
2022-10-31T22:05:26.722Z,67.35
2022-10-31T22:10:42.682Z,70.00
2022-10-31T22:13:15.464Z,69.85
2022-10-31T22:18:37.183Z,62.95
2022-10-31T22:21:08.466Z,53.90
2022-10-31T22:23:36.761Z,54.83
2022-10-31T22:26:05.119Z,54.33
2022-10-31T22:31:25.293Z,52.35
2022-10-31T22:34:07.533Z,56.92
2022-10-31T22:36:36.532Z,54.22
2022-10-31T22:39:14.923Z,50.50
2022-10-31T22:47:50.848Z,52.75
2022-10-31T22:50:18.465Z,53.92
2022-10-31T22:52:47.767Z,53.47
2022-10-31T22:55:40.745Z,53.20
2022-10-31T22:58:08.453Z,51.85
2022-10-31T23:01:01.932Z,50.97
2022-10-31T23:03:29.860Z,53.08
2022-10-31T23:05:58.784Z,51.70
2022-10-31T23:08:30.519Z,51.65
2022-10-31T23:16:59.109Z,51.72
2022-10-31T23:19:28.154Z,53.85
2022-10-31T23:21:57.804Z,54.65
2022-10-31T23:24:29.323Z,49.70
2022-10-31T23:27:08.891Z,52.55
2022-10-31T23:29:38.023Z,50.80
2022-10-31T23:32:07.051Z,51.35
2022-10-31T23:34:35.902Z,52.22
2022-10-31T23:37:29.764Z,47.75
2022-10-31T23:40:22.635Z,47.70
2022-10-31T23:42:50.914Z,47.95
2022-10-31T23:45:18.449Z,48.65
2022-10-31T23:47:46.022Z,47.28
2022-10-31T23:50:19.771Z,46.55
2022-10-31T23:52:47.599Z,49.28
2022-10-31T23:55:21.211Z,46.38
2022-10-31T23:57:48.739Z,47.45
